Time,TemperatureF,DewpointF,PressureIn,WindDirection,WindDirectionDegrees,WindSpeedMPH,WindSpeedGustMPH,Humidity,HourlyPrecipIn,Conditions,Clouds,dailyrainin,SoftwareType,DateUTC
2013-01-24 00:01:00,12.6,3.7,30.14,SSW,196,0.0,0.0,67,0.00,,,0.00,Wunderground v.1.15,2013-01-24 05:01:00,
2013-01-24 00:03:00,12.6,3.4,30.14,SE,132,0.0,0.0,66,0.00,,,0.00,Wunderground v.1.15,2013-01-24 05:03:00,
2013-01-24 00:04:00,12.6,3.4,30.14,South,185,0.0,3.0,66,0.00,,,0.00,Wunderground v.1.15,2013-01-24 05:04:00,
2013-01-24 00:05:00,12.6,3.7,30.14,SSW,196,0.0,3.0,67,0.00,,,0.00,Wunderground v.1.15,2013-01-24 05:05:00,
2013-01-24 00:10:00,12.5,3.6,30.14,SSE,167,1.0,3.0,67,0.00,,,0.00,Wunderground v.1.15,2013-01-24 05:10:00,
2013-01-24 00:16:00,12.6,3.7,30.14,SE,136,0.0,1.0,67,0.00,,,0.00,Wunderground v.1.15,2013-01-24 05:16:00,
2013-01-24 00:21:00,12.6,3.4,30.14,SSW,205,0.0,1.0,66,0.00,,,0.00,Wunderground v.1.15,2013-01-24 05:21:00,
2013-01-24 00:27:00,12.6,3.4,30.14,SSE,153,1.0,1.0,66,0.00,,,0.00,Wunderground v.1.15,2013-01-24 05:27:00,
2013-01-24 00:34:00,12.6,3.7,30.13,SE,136,0.0,0.0,67,0.00,,,0.00,Wunderground v.1.15,2013-01-24 05:34:00,
2013-01-24 00:39:00,12.6,3.4,30.13,South,186,0.0,1.0,66,0.00,,,0.00,Wunderground v.1.15,2013-01-24 05:39:00,
2013-01-24 00:44:00,12.6,3.4,30.13,SW,219,0.0,2.0,66,0.00,,,0.00,Wunderground v.1.15,2013-01-24 05:44:00,
2013-01-24 00:49:00,12.6,3.7,30.13,SSE,152,0.0,2.0,67,0.00,,,0.00,Wunderground v.1.15,2013-01-24 05:49:00,
2013-01-24 00:54:00,12.6,4.3,30.13,SE,143,0.0,1.0,69,0.00,,,0.00,Wunderground v.1.15,2013-01-24 05:54:00,
2013-01-24 00:59:00,12.5,4.6,30.13,SSW,194,0.0,1.0,70,0.00,,,0.00,Wunderground v.1.15,2013-01-24 05:59:00,
2013-01-24 01:05:00,12.6,5.3,30.13,SSW,197,1.0,2.0,72,0.00,,,0.00,Wunderground v.1.15,2013-01-24 06:05:00,
2013-01-24 01:11:00,12.5,5.8,30.13,SE,146,1.0,2.0,74,0.00,,,0.00,Wunderground v.1.15,2013-01-24 06:11:00,
2013-01-24 01:17:00,12.4,6.0,30.13,South,173,1.0,2.0,75,0.00,,,0.00,Wunderground v.1.15,2013-01-24 06:17:00,
2013-01-24 01:22:00,12.4,6.0,30.13,SE,145,0.0,1.0,75,0.00,,,0.00,Wunderground v.1.15,2013-01-24 06:22:00,
2013-01-24 01:29:00,12.3,6.2,30.13,SSE,150,0.0,1.0,76,0.00,,,0.00,Wunderground v.1.15,2013-01-24 06:29:00,
2013-01-24 01:34:00,12.2,6.4,30.13,South,169,0.0,2.0,77,0.00,,,0.00,Wunderground v.1.15,2013-01-24 06:34:00,
2013-01-24 01:40:00,12.2,6.7,30.14,South,170,1.0,1.0,78,0.00,,,0.00,Wunderground v.1.15,2013-01-24 06:40:00,
2013-01-24 01:45:00,12.1,6.8,30.14,South,190,0.0,1.0,79,0.00,,,0.00,Wunderground v.1.15,2013-01-24 06:45:00,
2013-01-24 01:50:00,12.1,6.8,30.14,SSE,165,0.0,0.0,79,0.00,,,0.00,Wunderground v.1.15,2013-01-24 06:50:00,
2013-01-24 01:56:00,12.0,7.0,30.14,SSE,158,0.0,2.0,80,0.00,,,0.00,Wunderground v.1.15,2013-01-24 06:56:00,
2013-01-24 02:01:00,12.0,7.3,30.14,SSE,162,1.0,1.0,81,0.00,,,0.00,Wunderground v.1.15,2013-01-24 07:01:00,
2013-01-24 02:07:00,12.0,7.6,30.14,South,184,1.0,2.0,82,0.00,,,0.00,Wunderground v.1.15,2013-01-24 07:07:00,
2013-01-24 02:12:00,11.9,7.5,30.14,SSE,166,0.0,1.0,82,0.00,,,0.00,Wunderground v.1.15,2013-01-24 07:12:00,
2013-01-24 02:18:00,11.9,7.7,30.14,SW,229,0.0,1.0,83,0.00,,,0.00,Wunderground v.1.15,2013-01-24 07:18:00,
2013-01-24 02:24:00,11.8,7.6,30.15,SW,218,0.0,1.0,83,0.00,,,0.00,Wunderground v.1.15,2013-01-24 07:24:00,
2013-01-24 02:31:00,11.8,7.9,30.15,WSW,240,0.0,0.0,84,0.00,,,0.00,Wunderground v.1.15,2013-01-24 07:31:00,
2013-01-24 02:36:00,11.8,7.9,30.15,SW,214,0.0,1.0,84,0.00,,,0.00,Wunderground v.1.15,2013-01-24 07:36:00,
2013-01-24 02:42:00,11.7,7.8,30.15,SSW,204,0.0,0.0,84,0.00,,,0.00,Wunderground v.1.15,2013-01-24 07:42:00,
2013-01-24 02:49:00,11.4,7.5,30.16,SSW,204,0.0,0.0,84,0.00,,,0.00,Wunderground v.1.15,2013-01-24 07:49:00,
2013-01-24 02:54:00,11.1,7.2,30.16,SSW,204,0.0,0.0,84,0.00,,,0.00,Wunderground v.1.15,2013-01-24 07:54:00,
2013-01-24 02:59:00,10.9,7.3,30.16,SSW,204,0.0,0.0,85,0.00,,,0.00,Wunderground v.1.15,2013-01-24 07:59:00,
2013-01-24 03:05:00,11.0,7.6,30.16,SSW,204,0.0,0.0,86,0.00,,,0.00,Wunderground v.1.15,2013-01-24 08:05:00,
2013-01-24 03:11:00,10.9,7.5,30.16,SSW,204,0.0,0.0,86,0.00,,,0.00,Wunderground v.1.15,2013-01-24 08:11:00,
2013-01-24 03:17:00,10.5,7.1,30.16,SSW,205,0.0,0.0,86,0.00,,,0.00,Wunderground v.1.15,2013-01-24 08:17:00,
2013-01-24 03:22:00,10.1,6.5,30.16,SSW,204,0.0,0.0,85,0.00,,,0.00,Wunderground v.1.15,2013-01-24 08:22:00,
2013-01-24 03:27:00,9.9,6.6,30.16,SSW,204,0.0,0.0,86,0.00,,,0.00,Wunderground v.1.15,2013-01-24 08:27:00,
2013-01-24 03:32:00,9.5,6.2,30.17,SSW,204,0.0,0.0,86,0.00,,,0.00,Wunderground v.1.15,2013-01-24 08:32:00,
2013-01-24 03:39:00,9.3,6.2,30.17,SSW,204,0.0,0.0,87,0.00,,,0.00,Wunderground v.1.15,2013-01-24 08:39:00,
2013-01-24 03:44:00,9.0,5.9,30.17,SSW,204,0.0,0.0,87,0.00,,,0.00,Wunderground v.1.15,2013-01-24 08:44:00,
2013-01-24 03:50:00,8.5,5.4,30.18,SSW,204,0.0,0.0,87,0.00,,,0.00,Wunderground v.1.15,2013-01-24 08:50:00,
2013-01-24 03:55:00,8.2,5.1,30.18,SSW,204,0.0,0.0,87,0.00,,,0.00,Wunderground v.1.15,2013-01-24 08:55:00,
2013-01-24 04:00:00,8.0,5.2,30.18,SSW,204,0.0,0.0,88,0.00,,,0.00,Wunderground v.1.15,2013-01-24 09:00:00,
2013-01-24 04:06:00,8.0,5.2,30.18,SSW,204,0.0,0.0,88,0.00,,,0.00,Wunderground v.1.15,2013-01-24 09:06:00,
2013-01-24 04:11:00,7.9,5.3,30.19,SSW,205,0.0,0.0,89,0.00,,,0.00,Wunderground v.1.15,2013-01-24 09:11:00,
2013-01-24 04:16:00,8.1,5.5,30.19,SSW,204,0.0,0.0,89,0.00,,,0.00,Wunderground v.1.15,2013-01-24 09:16:00,
2013-01-24 04:22:00,8.4,5.8,30.19,SSW,204,0.0,0.0,89,0.00,,,0.00,Wunderground v.1.15,2013-01-24 09:22:00,
2013-01-24 04:29:00,8.4,5.8,30.19,SSW,205,0.0,0.0,89,0.00,,,0.00,Wunderground v.1.15,2013-01-24 09:29:00,
2013-01-24 04:34:00,8.9,6.6,30.20,SSW,204,0.0,0.0,90,0.00,,,0.00,Wunderground v.1.15,2013-01-24 09:34:00,
2013-01-24 04:40:00,9.4,7.1,30.20,SSW,205,0.0,0.0,90,0.00,,,0.00,Wunderground v.1.15,2013-01-24 09:40:00,
2013-01-24 04:46:00,9.8,7.5,30.20,SSW,204,0.0,0.0,90,0.00,,,0.00,Wunderground v.1.15,2013-01-24 09:46:00,
2013-01-24 04:52:00,10.2,7.9,30.20,SW,231,0.0,0.0,90,0.00,,,0.00,Wunderground v.1.15,2013-01-24 09:52:00,
2013-01-24 04:59:00,10.6,8.0,30.21,SW,231,0.0,0.0,89,0.00,,,0.00,Wunderground v.1.15,2013-01-24 09:59:00,
2013-01-24 05:04:00,10.8,7.9,30.21,SW,231,0.0,0.0,88,0.00,,,0.00,Wunderground v.1.15,2013-01-24 10:04:00,
2013-01-24 05:10:00,11.0,8.1,30.21,SW,231,0.0,0.0,88,0.00,,,0.00,Wunderground v.1.15,2013-01-24 10:10:00,
2013-01-24 05:15:00,11.3,8.4,30.21,SW,222,0.0,0.0,88,0.00,,,0.00,Wunderground v.1.15,2013-01-24 10:15:00,
2013-01-24 05:20:00,11.5,8.4,30.22,SW,222,0.0,0.0,87,0.00,,,0.00,Wunderground v.1.15,2013-01-24 10:20:00,
2013-01-24 05:25:00,11.7,8.6,30.22,SW,222,0.0,0.0,87,0.00,,,0.00,Wunderground v.1.15,2013-01-24 10:25:00,
2013-01-24 05:31:00,11.9,8.8,30.22,SW,228,0.0,0.0,87,0.00,,,0.00,Wunderground v.1.15,2013-01-24 10:31:00,
2013-01-24 05:36:00,12.2,8.8,30.23,East,92,0.0,0.0,86,0.00,,,0.00,Wunderground v.1.15,2013-01-24 10:36:00,
2013-01-24 05:41:00,12.6,9.2,30.23,East,90,0.0,0.0,86,0.00,,,0.00,Wunderground v.1.15,2013-01-24 10:41:00,
2013-01-24 05:46:00,12.7,9.3,30.24,NNE,22,0.0,0.0,86,0.00,,,0.00,Wunderground v.1.15,2013-01-24 10:46:00,
2013-01-24 05:52:00,12.7,9.3,30.24,North,3,0.0,0.0,86,0.00,,,0.00,Wunderground v.1.15,2013-01-24 10:52:00,
2013-01-24 05:57:00,12.8,9.7,30.24,WSW,252,0.0,0.0,87,0.00,,,0.00,Wunderground v.1.15,2013-01-24 10:57:00,
2013-01-24 06:04:00,12.9,9.8,30.25,West,268,0.0,0.0,87,0.00,,,0.00,Wunderground v.1.15,2013-01-24 11:04:00,
2013-01-24 06:09:00,13.0,9.9,30.25,West,267,0.0,0.0,87,0.00,,,0.00,Wunderground v.1.15,2013-01-24 11:09:00,
2013-01-24 06:14:00,13.0,9.9,30.25,West,260,0.0,0.0,87,0.00,,,0.00,Wunderground v.1.15,2013-01-24 11:14:00,
2013-01-24 06:20:00,13.0,9.9,30.26,WSW,243,0.0,0.0,87,0.00,,,0.00,Wunderground v.1.15,2013-01-24 11:20:00,
2013-01-24 06:26:00,13.0,9.9,30.26,WSW,243,0.0,0.0,87,0.00,,,0.00,Wunderground v.1.15,2013-01-24 11:26:00,
2013-01-24 06:31:00,13.0,9.9,30.26,WSW,244,0.0,0.0,87,0.00,,,0.00,Wunderground v.1.15,2013-01-24 11:31:00,
2013-01-24 06:37:00,13.0,9.9,30.27,NNE,25,0.0,0.0,87,0.00,,,0.00,Wunderground v.1.15,2013-01-24 11:37:00,
2013-01-24 06:44:00,13.0,9.9,30.27,North,5,0.0,0.0,87,0.00,,,0.00,Wunderground v.1.15,2013-01-24 11:44:00,